Time;durP1;ratioP1;P1;durP2;ratioP2;P2;SDS_P1;SDS_P2;PMS_P1;PMS_P2;Temp;Humidity;BMP_temperature;BMP_pressure;BME280_temperature;BME280_humidity;BME280_pressure;Samples;Min_cycle;Max_cycle;Signal;HPM_P1;HPM_P2
2022/04/18 00:00:09;;;;;;;3.10;2.33;;;;;;;8.27;48.87;96746.59;5071404;28;20187;-59
2022/04/18 00:02:35;;;;;;;2.60;2.40;;;;;;;8.22;47.15;96746.16;5072045;28;20218;-61
2022/04/18 00:05:03;;;;;;;2.90;2.70;;;;;;;8.19;47.32;96741.13;5072194;28;20214;-60
2022/04/18 00:07:29;;;;;;;3.10;2.87;;;;;;;8.17;49.25;96733.34;5072405;28;20210;-59
2022/04/18 00:09:56;;;;;;;2.67;2.47;;;;;;;8.01;50.85;96733.75;5070962;28;20218;-59
2022/04/18 00:12:24;;;;;;;3.10;2.80;;;;;;;8.00;50.87;96716.31;5071695;28;20203;-61
2022/04/18 00:14:50;;;;;;;2.70;2.60;;;;;;;8.00;50.70;96726.84;5071493;28;20589;-58
2022/04/18 00:17:18;;;;;;;2.80;2.60;;;;;;;7.82;50.95;96722.22;5071794;28;20552;-59
2022/04/18 00:19:44;;;;;;;2.87;2.57;;;;;;;7.81;50.94;96718.75;5071807;28;20210;-59
2022/04/18 00:22:11;;;;;;;2.70;2.50;;;;;;;7.83;50.06;96716.81;5080330;28;20259;-60
2022/04/18 00:24:37;;;;;;;3.40;3.10;;;;;;;7.80;50.31;96730.25;5085063;28;20213;-58
2022/04/18 00:27:07;;;;;;;3.67;2.70;;;;;;;7.78;51.76;96716.38;5088602;28;20208;-59
2022/04/18 00:29:35;;;;;;;3.00;2.70;;;;;;;7.65;50.65;96720.94;5078219;28;20229;-59
2022/04/18 00:32:01;;;;;;;2.53;2.33;;;;;;;7.72;49.88;96710.78;5076895;28;20289;-60
2022/04/18 00:34:28;;;;;;;4.10;2.70;;;;;;;7.66;51.20;96704.19;5072984;28;20928;-59
2022/04/18 00:36:54;;;;;;;2.77;2.40;;;;;;;7.57;52.27;96702.31;5074003;28;20229;-61
2022/04/18 00:39:21;;;;;;;2.70;2.47;;;;;;;7.48;52.31;96703.03;5073667;28;20199;-58
2022/04/18 00:41:48;;;;;;;2.67;2.47;;;;;;;7.21;54.58;96700.81;5074074;28;20198;-62
2022/04/18 00:44:15;;;;;;;2.77;2.57;;;;;;;7.22;53.71;96693.75;5074187;28;20567;-59
2022/04/18 00:46:45;;;;;;;3.00;2.80;;;;;;;7.29;50.57;96681.81;5074070;28;20195;-58
2022/04/18 00:49:11;;;;;;;2.80;2.30;;;;;;;7.35;50.42;96681.31;5074912;28;20670;-59
2022/04/18 00:51:38;;;;;;;2.70;2.50;;;;;;;7.37;49.78;96672.31;5074787;28;20230;-60
2022/04/18 00:54:05;;;;;;;2.63;2.43;;;;;;;7.36;49.82;96675.94;5073965;28;20299;-60
2022/04/18 00:56:34;;;;;;;2.93;2.63;;;;;;;7.42;49.41;96671.97;5074371;28;20217;-61
2022/04/18 00:59:01;;;;;;;2.53;2.33;;;;;;;7.44;50.22;96672.66;5072902;28;20693;-61
2022/04/18 01:01:28;;;;;;;2.90;2.50;;;;;;;7.41;48.87;96662.38;5072819;28;20207;-60
2022/04/18 01:03:56;;;;;;;2.77;2.60;;;;;;;7.44;49.45;96665.59;5076336;28;20213;-59
2022/04/18 01:06:22;;;;;;;3.17;2.53;;;;;;;7.42;51.22;96661.44;5081478;28;20197;-60
2022/04/18 01:08:49;;;;;;;2.33;2.13;;;;;;;7.31;52.53;96659.66;5091278;28;20195;-60
2022/04/18 01:11:16;;;;;;;3.13;2.60;;;;;;;7.30;52.47;96665.03;5095577;28;20222;-59
2022/04/18 01:13:47;;;;;;;2.80;2.60;;;;;;;7.25;52.37;96654.91;5078496;28;20199;-60
2022/04/18 01:16:14;;;;;;;2.83;2.63;;;;;;;7.11;54.37;96662.22;5072617;28;20210;-59
2022/04/18 01:18:41;;;;;;;2.73;2.53;;;;;;;7.06;54.00;96659.09;5071544;28;20203;-59
2022/04/18 01:21:10;;;;;;;2.83;2.53;;;;;;;7.03;53.00;96654.94;5071278;28;20206;-60
2022/04/18 01:23:38;;;;;;;2.90;2.70;;;;;;;6.99;52.53;96653.50;5073680;28;20206;-58
2022/04/18 01:29:06;;;;;;;3.10;2.80;;;;;;;6.65;54.96;96644.78;5012753;28;20640;-58
2022/04/18 01:31:34;;;;;;;2.70;2.50;;;;;;;6.55;56.55;96651.72;5012435;28;20232;-59
2022/04/18 01:34:01;;;;;;;3.03;2.83;;;;;;;6.48;55.37;96647.88;5040146;28;20230;-60
2022/04/18 01:36:29;;;;;;;2.80;2.60;;;;;;;6.42;55.47;96645.72;5074642;28;20194;-60
2022/04/18 01:38:56;;;;;;;3.50;2.97;;;;;;;6.37;55.86;96642.63;5073538;28;20195;-59
2022/04/18 01:41:24;;;;;;;2.77;2.57;;;;;;;6.18;56.78;96643.19;5074263;28;20229;-61
2022/04/18 01:43:51;;;;;;;3.37;2.80;;;;;;;6.23;56.13;96641.06;5074547;28;20202;-59
2022/04/18 01:46:19;;;;;;;2.63;2.43;;;;;;;6.12;56.43;96645.44;5074461;28;20213;-60
2022/04/18 01:48:46;;;;;;;2.80;2.60;;;;;;;5.98;58.35;96646.47;5073674;28;20202;-61
2022/04/18 01:51:13;;;;;;;2.80;2.60;;;;;;;6.05;56.94;96645.06;5073006;28;20880;-60
2022/04/18 01:53:41;;;;;;;2.80;2.70;;;;;;;6.04;56.51;96638.13;5074255;28;20594;-59
2022/04/18 01:56:08;;;;;;;3.20;2.90;;;;;;;5.94;57.29;96638.00;5074094;28;20207;-59
2022/04/18 01:58:34;;;;;;;3.40;2.70;;;;;;;5.90;58.49;96635.69;5073803;28;20281;-59
2022/04/18 02:01:01;;;;;;;2.93;2.80;;;;;;;5.89;58.26;96640.09;5072714;28;20210;-61
2022/04/18 02:03:27;;;;;;;3.23;2.93;;;;;;;5.96;57.36;96635.22;5073340;28;20229;-59
2022/04/18 02:05:55;;;;;;;2.87;2.67;;;;;;;5.94;58.23;96632.75;5073245;28;20619;-58
2022/04/18 02:08:23;;;;;;;3.03;2.83;;;;;;;6.00;57.29;96627.03;5073126;28;20206;-59
2022/04/18 02:10:53;;;;;;;2.83;2.63;;;;;;;5.97;57.75;96635.13;5071887;28;20214;-59
2022/04/18 02:13:21;;;;;;;3.10;2.87;;;;;;;5.90;57.67;96626.03;5072674;28;20190;-60
2022/04/18 02:15:49;;;;;;;3.00;2.80;;;;;;;5.92;58.14;96625.91;5073395;28;20206;-59
2022/04/18 02:18:17;;;;;;;3.33;2.77;;;;;;;5.88;58.53;96625.31;5072661;28;20211;-59
2022/04/18 02:20:43;;;;;;;3.57;2.70;;;;;;;5.87;58.61;96630.69;5073213;28;20199;-59
2022/04/18 02:23:10;;;;;;;2.87;2.63;;;;;;;5.77;59.41;96624.44;5073304;28;20221;-59
2022/04/18 02:25:36;;;;;;;3.13;2.93;;;;;;;5.79;58.69;96631.22;5073663;28;20567;-60
2022/04/18 02:28:05;;;;;;;4.27;2.73;;;;;;;5.69;58.79;96627.63;5072799;28;20669;-59
2022/04/18 02:30:32;;;;;;;4.60;3.30;;;;;;;5.65;58.85;96628.78;5073033;28;20226;-59
2022/04/18 02:32:59;;;;;;;2.60;2.40;;;;;;;5.63;59.36;96625.44;5072486;28;20241;-60
2022/04/18 02:35:30;;;;;;;3.20;2.90;;;;;;;5.52;59.00;96620.16;5071843;28;20305;-59
2022/04/18 02:37:57;;;;;;;3.47;2.77;;;;;;;5.49;58.94;96617.75;5072647;28;20279;-61
2022/04/18 02:40:24;;;;;;;3.07;2.87;;;;;;;5.56;59.35;96618.97;5094646;28;20198;-63
2022/04/18 02:42:51;;;;;;;3.10;2.57;;;;;;;5.43;59.70;96619.03;5098249;28;20186;-60
2022/04/18 02:45:20;;;;;;;3.40;3.10;;;;;;;5.42;59.84;96629.66;5098897;28;20185;-60
2022/04/18 02:47:47;;;;;;;2.90;2.70;;;;;;;5.41;59.70;96618.31;5081560;28;20198;-58
2022/04/18 02:50:14;;;;;;;2.93;2.63;;;;;;;5.38;59.50;96628.19;5073174;28;20205;-59
2022/04/18 02:52:41;;;;;;;2.90;2.60;;;;;;;5.24;60.11;96623.13;5073033;28;20211;-60
2022/04/18 02:55:11;;;;;;;3.10;2.80;;;;;;;5.24;60.98;96612.63;5074014;28;20229;-57
2022/04/18 02:57:40;;;;;;;4.37;2.77;;;;;;;5.25;60.77;96616.91;5073492;28;20212;-59
2022/04/18 03:00:11;;;;;;;3.17;2.90;;;;;;;5.20;60.63;96619.03;5074366;28;20238;-58
2022/04/18 03:02:39;;;;;;;3.20;2.90;;;;;;;5.22;60.55;96611.88;5075348;28;20202;-58
2022/04/18 03:05:09;;;;;;;3.03;2.83;;;;;;;5.18;60.84;96613.06;5075900;28;20198;-58
2022/04/18 03:07:36;;;;;;;2.97;2.77;;;;;;;4.97;61.08;96613.66;5089983;28;20186;-62
2022/04/18 03:10:05;;;;;;;2.93;2.50;;;;;;;5.11;61.25;96617.06;5098633;28;20178;-61
2022/04/18 03:12:32;;;;;;;3.17;2.97;;;;;;;5.03;61.55;96608.94;5100262;28;20194;-60
2022/04/18 03:14:58;;;;;;;3.33;3.03;;;;;;;4.97;61.36;96608.41;5086768;28;20216;-60
2022/04/18 03:17:28;;;;;;;3.20;3.00;;;;;;;4.94;62.86;96613.88;5090024;28;20253;-59
2022/04/18 03:19:56;;;;;;;3.37;3.07;;;;;;;4.86;62.36;96616.19;5082957;28;20210;-60
2022/04/18 03:22:23;;;;;;;3.17;2.97;;;;;;;4.84;61.82;96614.63;5071536;28;20664;-61
2022/04/18 03:24:50;;;;;;;3.10;2.90;;;;;;;4.83;62.56;96616.41;5072311;28;20205;-61
2022/04/18 03:27:17;;;;;;;4.20;2.80;;;;;;;4.71;63.07;96616.47;5070981;28;20194;-60
2022/04/18 03:29:43;;;;;;;2.80;2.60;;;;;;;4.76;62.44;96617.78;5071932;28;20201;-60
2022/04/18 03:32:10;;;;;;;3.40;3.10;;;;;;;4.70;63.23;96615.63;5070754;28;20234;-60
2022/04/18 03:34:37;;;;;;;3.17;2.93;;;;;;;4.71;62.86;96614.66;5072132;28;20194;-60
2022/04/18 03:39:54;;;;;;;2.60;2.50;;;;;;;4.63;63.00;96624.84;5071692;28;20542;-61
2022/04/18 03:42:29;;;;;;;3.23;2.90;;;;;;;4.58;63.31;96624.31;5071769;28;21150;-59
2022/04/18 03:44:57;;;;;;;3.30;3.10;;;;;;;4.57;63.56;96614.78;5071677;28;20217;-58
2022/04/18 03:47:24;;;;;;;3.10;2.73;;;;;;;4.58;63.59;96621.69;5070479;28;20698;-60
2022/04/18 03:49:52;;;;;;;3.03;2.83;;;;;;;4.58;63.26;96626.94;5072242;28;20217;-59
2022/04/18 03:52:23;;;;;;;3.20;3.00;;;;;;;4.47;65.15;96634.69;5071223;28;20223;-58
2022/04/18 03:54:52;;;;;;;4.80;3.23;;;;;;;4.49;64.68;96632.84;5071617;28;20190;-60
2022/04/18 03:57:18;;;;;;;3.20;3.00;;;;;;;4.48;63.45;96628.53;5071189;28;20534;-59
2022/04/18 03:59:45;;;;;;;2.97;2.77;;;;;;;4.50;63.75;96624.00;5071411;28;20220;-58
2022/04/18 04:02:12;;;;;;;3.33;3.03;;;;;;;4.46;64.28;96633.06;5053615;28;20202;-60
2022/04/18 04:04:38;;;;;;;3.20;2.90;;;;;;;4.45;64.31;96628.75;5071504;28;20205;-58
2022/04/18 04:07:05;;;;;;;2.97;2.77;;;;;;;4.50;63.38;96629.25;5071355;28;20228;-60
2022/04/18 04:09:36;;;;;;;3.67;3.30;;;;;;;4.46;64.16;96628.63;5071799;28;20587;-61
2022/04/18 04:12:03;;;;;;;3.00;2.80;;;;;;;4.37;64.37;96615.34;5070955;28;20272;-60
2022/04/18 04:14:29;;;;;;;2.83;2.63;;;;;;;4.33;64.43;96616.50;5068585;28;20217;-61
2022/04/18 04:16:57;;;;;;;3.57;3.27;;;;;;;4.35;63.97;96615.47;5071070;28;20214;-60
2022/04/18 04:19:24;;;;;;;2.97;2.77;;;;;;;4.39;63.96;96610.84;5069888;28;20198;-62
2022/04/18 04:21:50;;;;;;;3.03;2.83;;;;;;;4.42;63.78;96616.72;5071106;28;20198;-61
2022/04/18 04:24:17;;;;;;;3.23;2.93;;;;;;;4.37;63.69;96621.41;5070809;28;20785;-61
2022/04/18 04:26:45;;;;;;;4.07;3.10;;;;;;;4.28;65.13;96629.91;5070936;28;20228;-61
2022/04/18 04:29:12;;;;;;;2.97;2.77;;;;;;;4.16;64.80;96628.13;5071345;28;20576;-60
2022/04/18 04:31:38;;;;;;;3.07;2.87;;;;;;;4.16;65.25;96627.28;5072834;28;20783;-60
2022/04/18 04:34:10;;;;;;;3.40;3.20;;;;;;;4.12;65.29;96629.28;5073020;28;20234;-60
2022/04/18 04:36:36;;;;;;;3.63;3.00;;;;;;;4.15;65.49;96631.66;5071660;28;20265;-58
2022/04/18 04:39:03;;;;;;;3.17;2.97;;;;;;;4.15;65.66;96628.22;5070894;28;20572;-59
2022/04/18 04:41:29;;;;;;;3.03;2.83;;;;;;;4.15;65.87;96622.97;5071534;28;20228;-58
2022/04/18 04:43:57;;;;;;;2.87;2.67;;;;;;;4.20;65.83;96620.91;5071299;28;20218;-59
2022/04/18 04:46:24;;;;;;;3.43;3.13;;;;;;;4.12;66.96;96620.56;5071152;28;20209;-59
2022/04/18 04:48:50;;;;;;;3.00;2.80;;;;;;;4.16;66.52;96629.91;5070215;28;20206;-58
2022/04/18 04:51:17;;;;;;;3.03;2.87;;;;;;;4.20;66.29;96626.13;5071024;28;20223;-59
2022/04/18 04:53:44;;;;;;;3.80;2.93;;;;;;;4.26;67.42;96620.47;5071099;28;20206;-59
2022/04/18 04:56:10;;;;;;;3.10;2.90;;;;;;;4.35;66.54;96619.84;5071048;28;20281;-61
2022/04/18 04:58:37;;;;;;;3.60;3.23;;;;;;;4.45;66.05;96631.38;5070291;28;20213;-60
2022/04/18 05:01:08;;;;;;;3.37;3.10;;;;;;;4.53;66.09;96619.41;5096978;28;20189;-64
2022/04/18 05:03:34;;;;;;;4.03;3.10;;;;;;;4.50;66.23;96631.88;5096219;28;20211;-62
2022/04/18 05:06:01;;;;;;;3.33;3.13;;;;;;;4.63;65.98;96627.47;5090856;28;20220;-58
2022/04/18 05:08:27;;;;;;;3.50;3.20;;;;;;;4.75;65.70;96634.44;5071588;28;20209;-61
2022/04/18 05:10:55;;;;;;;3.30;3.10;;;;;;;4.76;66.37;96630.06;5089796;28;20175;-59
2022/04/18 05:13:21;;;;;;;3.53;3.30;;;;;;;4.78;67.00;96630.81;5092269;28;20181;-60
2022/04/18 05:15:48;;;;;;;3.47;3.17;;;;;;;4.81;67.37;96630.59;5078758;28;20534;-58
2022/04/18 05:18:16;;;;;;;3.63;3.30;;;;;;;4.88;66.97;96640.53;5069684;28;20206;-60
2022/04/18 05:20:42;;;;;;;3.63;3.33;;;;;;;4.97;66.84;96634.63;5070595;28;20202;-60
2022/04/18 05:23:09;;;;;;;3.43;3.13;;;;;;;5.06;65.94;96640.16;5070751;28;20626;-58
2022/04/18 05:25:37;;;;;;;3.53;3.23;;;;;;;5.13;65.95;96633.53;5071938;28;20245;-60
2022/04/18 05:28:05;;;;;;;2.97;2.77;;;;;;;5.26;66.10;96639.56;5070205;28;20217;-58
2022/04/18 05:30:31;;;;;;;3.77;3.30;;;;;;;5.31;65.30;96638.31;5071299;28;20202;-59
2022/04/18 05:32:58;;;;;;;3.33;3.07;;;;;;;5.48;64.37;96637.06;5069979;28;20234;-60
2022/04/18 05:35:26;;;;;;;3.10;2.90;;;;;;;5.72;62.73;96637.88;5070871;28;20206;-60
2022/04/18 05:37:53;;;;;;;3.40;3.10;;;;;;;6.09;61.40;96650.91;5069980;28;20202;-59
2022/04/18 05:40:19;;;;;;;3.13;2.93;;;;;;;6.38;61.95;96646.91;5069910;28;20210;-59
2022/04/18 05:42:46;;;;;;;3.40;3.10;;;;;;;6.94;60.04;96645.97;5070513;28;20210;-59
2022/04/18 05:45:12;;;;;;;4.60;3.00;;;;;;;7.57;56.70;96648.84;5070128;28;20210;-59
2022/04/18 05:47:39;;;;;;;3.70;3.30;;;;;;;7.98;54.16;96647.13;5068658;28;20199;-60
2022/04/18 05:50:07;;;;;;;3.60;3.10;;;;;;;8.84;51.06;96644.22;5069406;28;20203;-59
2022/04/18 05:52:35;;;;;;;3.30;3.10;;;;;;;9.61;47.77;96641.78;5070045;28;20678;-59
2022/04/18 05:55:01;;;;;;;3.70;3.03;;;;;;;10.57;45.70;96644.41;5071091;28;20213;-60
2022/04/18 05:57:28;;;;;;;3.37;3.07;;;;;;;11.88;42.84;96644.06;5070462;28;20332;-60
2022/04/18 05:59:57;;;;;;;4.07;3.20;;;;;;;12.82;39.69;96637.16;5070344;28;20573;-60
2022/04/18 06:02:23;;;;;;;3.20;2.93;;;;;;;13.38;38.58;96636.66;5069919;28;20229;-58
2022/04/18 06:04:50;;;;;;;3.03;2.77;;;;;;;13.29;37.78;96636.75;5070258;28;20658;-60
2022/04/18 06:07:17;;;;;;;3.20;2.93;;;;;;;13.70;37.50;96637.75;5070178;28;20214;-60
2022/04/18 06:09:44;;;;;;;2.87;2.67;;;;;;;14.14;36.34;96644.44;5071419;28;20206;-58
2022/04/18 06:12:11;;;;;;;3.20;2.50;;;;;;;13.84;36.94;96632.63;5073845;28;20230;-60
2022/04/18 06:14:38;;;;;;;2.57;2.33;;;;;;;14.37;37.25;96628.72;5074314;28;20217;-58
2022/04/18 06:17:07;;;;;;;4.83;2.97;;;;;;;13.78;37.84;96637.78;5073618;28;20623;-60
2022/04/18 06:19:34;;;;;;;5.70;3.10;;;;;;;13.83;36.18;96638.94;5073827;28;20264;-58
2022/04/18 06:22:02;;;;;;;2.23;2.13;;;;;;;13.37;38.66;96639.47;5073353;28;20556;-61
2022/04/18 06:24:29;;;;;;;2.73;2.63;;;;;;;13.19;37.49;96641.38;5073658;28;20264;-59
2022/04/18 06:26:57;;;;;;;3.97;2.73;;;;;;;13.40;37.64;96642.63;5073061;28;20210;-59
2022/04/18 06:29:23;;;;;;;3.00;2.80;;;;;;;13.35;39.91;96636.13;5072552;28;20205;-60
2022/04/18 06:31:53;;;;;;;3.70;2.80;;;;;;;13.25;39.98;96633.59;5073045;28;20233;-59
2022/04/18 06:34:20;;;;;;;2.63;2.43;;;;;;;12.66;38.42;96634.41;5073208;28;20195;-58
2022/04/18 06:36:46;;;;;;;3.30;3.00;;;;;;;13.35;37.76;96636.13;5073796;28;20203;-58
2022/04/18 06:39:13;;;;;;;2.73;2.53;;;;;;;13.28;39.00;96641.25;5071941;28;20226;-59
2022/04/18 06:41:39;;;;;;;2.90;2.70;;;;;;;13.34;39.19;96639.78;5073120;28;20647;-59
2022/04/18 06:44:07;;;;;;;2.80;2.60;;;;;;;13.69;37.43;96634.25;5073609;28;20203;-59
2022/04/18 06:46:34;;;;;;;3.43;2.90;;;;;;;13.48;38.34;96631.19;5073528;28;20207;-58
2022/04/18 06:49:01;;;;;;;3.03;2.73;;;;;;;13.55;37.82;96632.22;5072177;28;20650;-57
2022/04/18 06:51:27;;;;;;;3.57;2.67;;;;;;;13.49;39.15;96635.53;5082008;28;20210;-59
2022/04/18 06:53:57;;;;;;;2.93;2.73;;;;;;;14.32;35.79;96631.00;5097407;28;20190;-59
2022/04/18 06:59:09;;;;;;;2.47;2.27;;;;;;;13.80;37.44;96643.75;5081164;28;20205;-61
2022/04/18 07:01:36;;;;;;;2.70;2.50;;;;;;;13.89;37.69;96634.78;5096002;28;20220;-60
2022/04/18 07:04:02;;;;;;;2.83;2.57;;;;;;;14.34;37.31;96637.03;5097280;28;20199;-60
2022/04/18 07:06:29;;;;;;;3.90;2.60;;;;;;;14.46;37.22;96630.34;5076941;28;20206;-59
2022/04/18 07:08:56;;;;;;;2.80;2.60;;;;;;;14.31;36.60;96635.47;5073593;28;20728;-58
2022/04/18 07:11:23;;;;;;;3.17;2.80;;;;;;;14.70;35.86;96637.50;5072665;28;20231;-57
2022/04/18 07:13:51;;;;;;;3.03;2.80;;;;;;;14.51;37.14;96641.34;5074915;28;20635;-58
2022/04/18 07:16:19;;;;;;;3.07;2.87;;;;;;;14.28;35.21;96641.13;5074944;28;20206;-57
2022/04/18 07:18:45;;;;;;;3.47;2.53;;;;;;;14.43;37.19;96646.66;5089521;28;20203;-60
2022/04/18 07:21:12;;;;;;;4.13;2.40;;;;;;;14.34;35.84;96640.53;5095575;28;20202;-60
2022/04/18 07:23:38;;;;;;;2.63;2.47;;;;;;;14.58;36.41;96644.16;5097782;28;20174;-59
2022/04/18 07:26:05;;;;;;;2.97;2.77;;;;;;;14.50;35.92;96631.69;5088627;28;20624;-58
2022/04/18 07:28:32;;;;;;;3.00;2.80;;;;;;;14.62;37.44;96638.34;5073859;28;20210;-58
2022/04/18 07:31:00;;;;;;;2.95;2.75;;;;;;;14.73;36.49;96631.84;5077598;28;20233;-60
2022/04/18 07:33:30;;;;;;;3.03;2.73;;;;;;;14.83;35.40;96638.66;5093332;28;20221;-60
2022/04/18 07:35:56;;;;;;;2.90;2.70;;;;;;;14.44;35.63;96640.34;5091968;28;20218;-59
2022/04/18 07:41:07;;;;;;;2.93;2.70;;;;;;;14.33;36.46;96635.31;5070283;28;20660;-58
2022/04/18 07:43:35;;;;;;;2.97;2.77;;;;;;;15.13;34.58;96631.72;5070844;28;20205;-58
2022/04/18 07:46:03;;;;;;;3.03;2.73;;;;;;;14.62;35.90;96632.19;5070023;28;20206;-59
2022/04/18 07:48:31;;;;;;;2.97;2.70;;;;;;;14.81;36.42;96631.81;5069656;28;20620;-59
2022/04/18 07:53:42;;;;;;;2.83;2.60;;;;;;;14.78;36.84;96627.66;5070680;28;20363;-60
2022/04/18 07:56:09;;;;;;;3.13;2.90;;;;;;;15.01;34.75;96633.09;5070604;28;20210;-60
2022/04/18 07:58:36;;;;;;;3.20;2.97;;;;;;;14.60;35.77;96635.00;5070182;28;20213;-58
2022/04/18 08:01:03;;;;;;;3.90;3.50;;;;;;;15.21;35.65;96630.88;5070221;28;20534;-58
2022/04/18 08:03:33;;;;;;;4.30;3.20;;;;;;;15.74;34.41;96625.66;5071023;28;20186;-60
2022/04/18 08:06:00;;;;;;;3.60;3.30;;;;;;;15.18;34.48;96624.06;5070811;28;20198;-58
2022/04/18 08:08:27;;;;;;;3.30;3.00;;;;;;;14.95;36.12;96623.13;5070696;28;20301;-59
2022/04/18 08:10:55;;;;;;;3.33;3.13;;;;;;;15.17;35.54;96619.72;5069543;28;20199;-60
2022/04/18 08:13:21;;;;;;;3.47;2.77;;;;;;;15.64;35.13;96613.56;5071025;28;20233;-60
2022/04/18 08:15:48;;;;;;;3.33;2.90;;;;;;;15.42;37.15;96615.13;5071577;28;20202;-57
2022/04/18 08:18:14;;;;;;;3.20;2.47;;;;;;;15.61;38.54;96621.91;5071413;28;20202;-59
2022/04/18 08:20:42;;;;;;;3.03;2.83;;;;;;;15.89;36.51;96612.41;5071003;28;20202;-58
2022/04/18 08:23:10;;;;;;;3.53;2.83;;;;;;;15.87;36.93;96617.09;5076152;28;20533;-57
2022/04/18 08:25:36;;;;;;;3.25;2.70;;;;;;;16.16;37.87;96625.22;5075891;28;20206;-57
2022/04/18 08:28:03;;;;;;;3.17;2.97;;;;;;;15.95;36.44;96617.03;5074887;28;20610;-59
2022/04/18 08:30:32;;;;;;;2.85;2.67;;;;;;;16.38;35.93;96623.56;5074415;28;20203;-57
2022/04/18 08:32:58;;;;;;;2.95;2.75;;;;;;;16.14;34.80;96619.25;5074466;28;20250;-60
2022/04/18 08:35:24;;;;;;;3.35;2.90;;;;;;;16.35;35.58;96619.41;5074033;28;20206;-58
2022/04/18 08:37:52;;;;;;;3.30;3.00;;;;;;;16.67;34.71;96613.00;5072453;28;20199;-58
2022/04/18 08:40:21;;;;;;;3.13;2.92;;;;;;;16.72;35.41;96615.91;5069283;28;20206;-58
2022/04/18 08:42:50;;;;;;;2.97;2.78;;;;;;;16.79;34.83;96611.50;5071198;28;20654;-58
2022/04/18 08:45:17;;;;;;;3.15;2.85;;;;;;;16.53;35.40;96604.91;5071171;28;20206;-59
2022/04/18 08:53:17;;;;;;;2.88;2.60;;;;;;;16.92;34.53;96603.72;5070625;28;20294;-58
2022/04/18 08:55:43;;;;;;;2.97;2.70;;;;;;;16.69;33.61;96600.28;5070010;28;20642;-58
2022/04/18 08:58:14;;;;;;;2.63;2.53;;;;;;;16.82;35.91;96594.31;5070749;28;20661;-57
2022/04/18 09:00:41;;;;;;;2.72;2.53;;;;;;;17.05;34.93;96594.22;5070692;28;20287;-57
2022/04/18 09:03:09;;;;;;;2.70;2.50;;;;;;;16.83;33.71;96591.44;5070560;28;20550;-58
2022/04/18 09:05:39;;;;;;;2.85;2.65;;;;;;;17.43;34.22;96593.09;5071351;28;20206;-56
2022/04/18 09:08:10;;;;;;;2.95;2.75;;;;;;;17.83;33.48;96587.22;5070314;28;20291;-59
2022/04/18 09:10:41;;;;;;;3.05;2.75;;;;;;;17.56;33.59;96587.09;5070617;28;20210;-60
2022/04/18 09:13:10;;;;;;;2.80;2.60;;;;;;;17.82;33.52;96580.22;5070881;28;20203;-59
2022/04/18 09:15:38;;;;;;;2.50;2.33;;;;;;;17.92;34.47;96582.59;5070964;28;20202;-58
2022/04/18 09:18:11;;;;;;;3.22;2.92;;;;;;;17.48;32.05;96588.00;5069475;28;20222;-60
2022/04/18 09:20:47;;;;;;;2.38;2.28;;;;;;;17.59;33.93;96584.91;5070091;28;20585;-59
2022/04/18 09:23:36;;;;;;;3.10;2.90;;;;;;;17.35;33.83;96582.50;5071397;28;20202;-59
2022/04/18 09:26:08;;;;;;;2.72;2.53;;;;;;;17.39;32.54;96578.47;5068789;28;20202;-60
2022/04/18 09:28:37;;;;;;;2.88;2.67;;;;;;;17.96;32.09;96580.38;5072301;28;20226;-62
2022/04/18 09:31:06;;;;;;;3.17;2.83;;;;;;;18.05;33.35;96581.88;5070923;28;20210;-61
2022/04/18 09:33:41;;;;;;;2.65;2.45;;;;;;;17.95;35.46;96576.03;5072534;28;20227;-61
2022/04/18 09:36:13;;;;;;;3.58;2.88;;;;;;;17.95;33.35;96570.69;5074584;28;20201;-62
2022/04/18 09:38:43;;;;;;;2.63;2.45;;;;;;;18.36;33.82;96566.31;5076676;28;20631;-62
2022/04/18 09:41:12;;;;;;;3.10;2.90;;;;;;;18.46;32.08;96557.97;5077828;28;20298;-61
2022/04/18 09:43:40;;;;;;;2.92;2.72;;;;;;;18.40;34.08;96564.91;5083722;28;20205;-60
2022/04/18 09:46:08;;;;;;;6.13;2.78;;;;;;;19.08;33.72;96560.69;5098307;28;20205;-60
2022/04/18 09:48:35;;;;;;;3.17;2.97;;;;;;;18.46;32.70;96564.13;5099094;28;20183;-58
2022/04/18 09:51:10;;;;;;;3.60;2.70;;;;;;;18.42;33.69;96566.38;5099596;28;20175;-58
2022/04/18 09:53:38;;;;;;;3.38;2.60;;;;;;;18.45;33.65;96561.66;5090065;28;20226;-58
2022/04/18 09:56:05;;;;;;;3.10;2.80;;;;;;;18.65;32.02;96557.31;5076006;28;20217;-58
2022/04/18 09:58:34;;;;;;;3.60;3.20;;;;;;;18.46;31.65;96553.41;5075263;28;20285;-58
2022/04/18 10:01:01;;;;;;;3.03;2.75;;;;;;;18.40;32.54;96556.88;5074454;28;20214;-58
2022/04/18 10:03:28;;;;;;;3.00;2.80;;;;;;;18.54;32.80;96560.53;5073964;28;20195;-59
2022/04/18 10:05:55;;;;;;;3.35;3.05;;;;;;;19.10;32.61;96546.03;5073690;28;20213;-57
2022/04/18 10:08:21;;;;;;;2.55;2.35;;;;;;;18.82;32.54;96558.66;5073922;28;20218;-62
2022/04/18 10:10:50;;;;;;;2.55;2.35;;;;;;;18.87;33.21;96541.00;5074596;28;20199;-62
2022/04/18 10:13:16;;;;;;;3.20;3.00;;;;;;;18.61;31.09;96546.16;5072347;28;20666;-62
2022/04/18 10:15:44;;;;;;;4.18;3.78;;;;;;;19.42;32.38;96541.06;5074167;28;20267;-61
2022/04/18 10:18:11;;;;;;;3.13;2.92;;;;;;;19.15;31.45;96532.06;5076328;28;21264;-63
2022/04/18 10:20:53;;;;;;;2.78;2.58;;;;;;;19.44;32.36;96537.19;5078012;28;20207;-62
2022/04/18 10:23:43;;;;;;;2.75;2.55;;;;;;;19.15;32.80;96537.41;5076988;28;20209;-62
2022/04/18 10:26:47;;;;;;;2.90;2.70;;;;;;;19.44;32.37;96531.81;5074847;28;20642;-62
2022/04/18 10:29:17;;;;;;;2.90;2.70;;;;;;;19.85;32.57;96529.03;5087079;28;20231;-63
2022/04/18 10:31:46;;;;;;;2.80;2.60;;;;;;;19.96;32.61;96523.06;5087720;28;20206;-62
2022/04/18 10:34:13;;;;;;;2.78;2.60;;;;;;;19.55;30.48;96522.34;5075172;28;20269;-62
2022/04/18 10:36:45;;;;;;;2.97;2.70;;;;;;;19.30;29.41;96520.19;5075272;28;20215;-62
2022/04/18 10:39:12;;;;;;;2.67;2.42;;;;;;;19.53;29.96;96508.31;5074338;28;20202;-62
2022/04/18 10:41:43;;;;;;;3.70;2.42;;;;;;;19.50;29.37;96520.25;5074339;28;20622;-62
2022/04/18 10:44:11;;;;;;;2.60;2.40;;;;;;;19.79;30.20;96519.94;5073485;28;20205;-61
2022/04/18 10:46:38;;;;;;;2.83;2.58;;;;;;;19.42;29.49;96512.41;5074097;28;20543;-63
2022/04/18 10:49:15;;;;;;;2.90;2.70;;;;;;;19.15;31.01;96510.59;5073422;28;20206;-62
2022/04/18 10:51:43;;;;;;;5.85;2.75;;;;;;;19.08;30.95;96509.75;5073398;28;20206;-60
2022/04/18 10:54:11;;;;;;;3.30;2.95;;;;;;;19.28;32.49;96511.50;5074333;28;20215;-61
2022/04/18 10:56:58;;;;;;;2.30;2.20;;;;;;;20.04;33.70;96512.13;5073654;28;20203;-61
2022/04/18 10:59:28;;;;;;;2.67;2.47;;;;;;;20.13;28.68;96512.75;5079909;28;20182;-58
2022/04/18 11:01:57;;;;;;;2.55;2.35;;;;;;;19.93;30.92;96504.69;5098595;28;20201;-57
2022/04/18 11:04:29;;;;;;;2.95;2.65;;;;;;;20.16;30.87;96507.78;5096942;28;20190;-61
2022/04/18 11:07:01;;;;;;;2.95;2.40;;;;;;;19.85;31.25;96503.00;5079173;28;20294;-60
2022/04/18 11:09:29;;;;;;;2.55;2.35;;;;;;;20.21;31.50;96504.50;5073482;28;20221;-59
2022/04/18 11:12:06;;;;;;;2.92;2.58;;;;;;;20.95;32.58;96505.06;5074466;28;20186;-60
2022/04/18 11:14:49;;;;;;;4.82;2.35;;;;;;;20.92;29.92;96500.09;5074735;28;20847;-61
2022/04/18 11:17:29;;;;;;;2.40;2.20;;;;;;;20.82;30.10;96492.47;5073591;28;20233;-59
2022/04/18 11:19:58;;;;;;;2.40;2.30;;;;;;;21.04;29.39;96492.22;5072342;28;20198;-60
2022/04/18 11:22:26;;;;;;;2.83;2.42;;;;;;;20.54;29.69;96496.47;5072410;28;20626;-59
2022/04/18 11:25:02;;;;;;;2.75;2.55;;;;;;;20.62;30.91;96489.00;5070878;28;20199;-58
2022/04/18 11:27:37;;;;;;;2.28;2.17;;;;;;;20.52;30.26;96488.59;5072453;28;20202;-60
2022/04/18 11:30:07;;;;;;;3.13;2.92;;;;;;;19.98;30.75;96482.59;5072667;28;20210;-59
2022/04/18 11:32:35;;;;;;;3.22;2.40;;;;;;;20.16;30.83;96477.41;5072090;28;20230;-60
2022/04/18 11:35:06;;;;;;;3.17;2.42;;;;;;;20.75;30.65;96470.19;5072250;28;20272;-59
2022/04/18 11:37:35;;;;;;;2.78;2.50;;;;;;;20.15;30.19;96479.31;5054817;28;20649;-58
2022/04/18 11:40:02;;;;;;;2.67;2.47;;;;;;;20.41;30.87;96470.41;5081346;28;20666;-58
2022/04/18 11:42:30;;;;;;;2.20;2.03;;;;;;;20.04;30.31;96471.03;5080312;28;20622;-59
2022/04/18 11:44:59;;;;;;;2.42;2.20;;;;;;;20.24;30.05;96464.63;5071867;28;20206;-59
2022/04/18 11:47:29;;;;;;;2.35;2.15;;;;;;;19.85;28.94;96462.75;5071167;28;20198;-60
2022/04/18 11:49:58;;;;;;;2.13;2.03;;;;;;;20.20;30.31;96462.56;5071666;28;20226;-59
2022/04/18 11:52:27;;;;;;;2.50;2.30;;;;;;;20.46;30.37;96462.56;5072317;28;20195;-60
2022/04/18 11:54:56;;;;;;;2.10;2.00;;;;;;;20.27;29.23;96458.00;5071543;28;20592;-59
2022/04/18 11:57:23;;;;;;;4.43;2.53;;;;;;;19.82;29.78;96465.84;5072382;28;20245;-59
2022/04/18 11:59:50;;;;;;;2.30;2.20;;;;;;;19.67;29.11;96457.16;5070955;28;20639;-60